X  CloseMetar Aviation Weather Data     LEVC Valencia

Temperatura

30°C Temperatura

21°C Punto de rocío

59% Humedad



Viento

23 KM/H

14 MPH

 6 M/S

12 KTS



60°
ENE
Condiciones actuales

Parcialmente nublado Parcialmente nublado
Presión 1016.92 (hPa) - 30.03 (in)
Visibilidad 6.2 (mi) - 10 (km)
Aeropuerto
Airport-code LEVC

localidad Valencia 18 (km)

Metar:
LEVC 201030Z 06012KT 040V100 9999 FEW025 BKN055 30/21 Q1017 NOSIG

Hora: 20-08-2019 12:30